createdAt,value
2022-09-02T00:00:06.527Z,53.42
2022-09-02T00:01:06.518Z,53.22
2022-09-02T00:02:06.660Z,53.12
2022-09-02T00:03:06.673Z,53.12
2022-09-02T00:04:06.507Z,53.12
2022-09-02T00:05:06.478Z,53.12
2022-09-02T00:06:06.458Z,53.22
2022-09-02T00:07:06.489Z,53.22
2022-09-02T00:08:06.449Z,53.22
2022-09-02T00:09:06.429Z,53.32
2022-09-02T00:10:06.439Z,53.32
2022-09-02T00:11:06.451Z,53.42
2022-09-02T00:12:06.388Z,53.32
2022-09-02T00:13:06.389Z,53.42
2022-09-02T00:14:06.409Z,53.52
2022-09-02T00:15:06.407Z,53.42
2022-09-02T00:16:06.495Z,53.42
2022-09-02T00:17:06.370Z,53.52
2022-09-02T00:18:06.361Z,53.42
2022-09-02T00:19:06.324Z,53.52
2022-09-02T00:20:06.327Z,53.52
2022-09-02T00:21:06.329Z,53.42
2022-09-02T00:22:06.310Z,53.52
2022-09-02T00:23:06.281Z,53.52
2022-09-02T00:24:06.269Z,53.52
2022-09-02T00:25:06.260Z,53.52
2022-09-02T00:26:06.282Z,53.52
2022-09-02T00:27:06.236Z,53.55
2022-09-02T00:28:06.228Z,53.65
2022-09-02T00:29:06.220Z,53.96
2022-09-02T00:30:06.199Z,53.65
2022-09-02T00:31:06.191Z,53.85
2022-09-02T00:32:06.245Z,53.75
2022-09-02T00:33:06.191Z,53.85
2022-09-02T00:34:06.150Z,53.75
2022-09-02T00:35:06.149Z,53.75
2022-09-02T00:36:06.129Z,53.75
2022-09-02T00:37:06.128Z,53.85
2022-09-02T00:38:06.159Z,54.05
2022-09-02T00:39:06.139Z,53.85
2022-09-02T00:40:06.125Z,53.85
2022-09-02T00:41:06.089Z,53.85
2022-09-02T00:42:06.070Z,53.85
2022-09-02T00:43:06.066Z,53.85
2022-09-02T00:44:06.076Z,53.96
2022-09-02T00:45:06.040Z,53.96
2022-09-02T00:46:06.129Z,53.85
2022-09-02T00:47:06.019Z,53.85
2022-09-02T00:48:06.008Z,53.85
2022-09-02T00:49:06.068Z,53.96
2022-09-02T00:50:05.987Z,53.96
2022-09-02T00:51:06.786Z,54.05
2022-09-02T00:52:05.979Z,54.05
2022-09-02T00:53:05.989Z,54.08
2022-09-02T00:54:05.940Z,54.18
2022-09-02T00:55:05.962Z,54.08
2022-09-02T00:56:05.927Z,54.18
2022-09-02T00:57:05.911Z,54.18
2022-09-02T00:58:09.565Z,54.18
2022-09-02T00:59:05.890Z,54.18
2022-09-02T01:00:05.899Z,54.28
2022-09-02T01:01:05.916Z,54.28
2022-09-02T01:02:05.947Z,54.18
2022-09-02T01:03:05.850Z,54.18
2022-09-02T01:04:05.861Z,54.28
2022-09-02T01:05:05.831Z,54.28
2022-09-02T01:06:05.840Z,54.28
2022-09-02T01:07:05.830Z,54.28
2022-09-02T01:08:05.820Z,54.28
2022-09-02T01:09:05.787Z,54.38
2022-09-02T01:10:05.779Z,54.28
2022-09-02T01:11:06.297Z,54.38
2022-09-02T01:12:05.751Z,54.48
2022-09-02T01:13:05.770Z,54.48
2022-09-02T01:14:05.730Z,54.68
2022-09-02T01:15:05.739Z,54.48
2022-09-02T01:16:05.803Z,54.48
2022-09-02T01:17:05.700Z,54.48
2022-09-02T01:18:05.680Z,54.48
2022-09-02T01:19:05.683Z,54.58
2022-09-02T01:20:05.739Z,54.58
2022-09-02T01:21:05.669Z,54.51
2022-09-02T01:22:05.672Z,54.91
2022-09-02T01:23:05.662Z,54.71
2022-09-02T01:24:05.620Z,54.91
2022-09-02T01:25:05.659Z,54.81
2022-09-02T01:26:05.612Z,55.01
2022-09-02T01:27:05.591Z,54.91
2022-09-02T01:28:05.580Z,55.01
2022-09-02T01:29:05.610Z,55.11
2022-09-02T01:30:05.581Z,55.21
2022-09-02T01:31:05.600Z,55.21
2022-09-02T01:32:05.547Z,55.21
2022-09-02T01:33:05.530Z,55.32
2022-09-02T01:34:05.512Z,55.54
2022-09-02T01:35:05.500Z,55.54
2022-09-02T01:36:05.502Z,55.44
2022-09-02T01:37:05.515Z,55.44
2022-09-02T01:38:05.501Z,55.54
2022-09-02T01:39:05.460Z,55.74
2022-09-02T01:40:05.482Z,55.74
2022-09-02T01:41:05.440Z,55.65
2022-09-02T01:42:05.428Z,55.74
2022-09-02T01:43:05.451Z,55.65
2022-09-02T01:44:05.441Z,55.74
2022-09-02T01:45:05.412Z,56.05
2022-09-02T01:46:05.381Z,55.85
2022-09-02T01:47:05.449Z,55.94
2022-09-02T01:48:05.363Z,55.94
2022-09-02T01:49:05.352Z,55.85
2022-09-02T01:50:05.368Z,55.94
2022-09-02T01:51:05.404Z,55.85
2022-09-02T01:52:05.320Z,55.74
2022-09-02T01:53:05.319Z,55.74
2022-09-02T01:54:05.317Z,55.74
2022-09-02T01:55:05.291Z,55.98
2022-09-02T01:56:05.280Z,55.85
2022-09-02T01:57:05.510Z,55.85
2022-09-02T01:58:05.262Z,55.85
2022-09-02T01:59:05.422Z,55.74
2022-09-02T02:00:05.400Z,55.65
2022-09-02T02:01:05.577Z,55.65
2022-09-02T02:02:05.271Z,55.85
2022-09-02T02:03:05.210Z,55.74
2022-09-02T02:04:05.309Z,55.85
2022-09-02T02:05:05.181Z,55.74
2022-09-02T02:06:05.170Z,55.67
2022-09-02T02:07:05.491Z,55.54
2022-09-02T02:08:05.170Z,55.65
2022-09-02T02:09:05.142Z,55.74
2022-09-02T02:10:05.137Z,55.74
2022-09-02T02:11:05.122Z,55.65
2022-09-02T02:12:05.101Z,55.65
2022-09-02T02:13:05.359Z,55.57
2022-09-02T02:14:05.101Z,55.44
2022-09-02T02:15:05.101Z,55.57
2022-09-02T02:16:05.127Z,55.47
2022-09-02T02:17:05.051Z,55.57
2022-09-02T02:18:05.089Z,55.47
2022-09-02T02:19:05.032Z,55.36
2022-09-02T02:20:05.031Z,55.47
2022-09-02T02:21:05.021Z,55.24
2022-09-02T02:22:05.002Z,55.36
2022-09-02T02:23:04.990Z,55.36
2022-09-02T02:24:05.038Z,55.36
2022-09-02T02:25:04.972Z,55.36
2022-09-02T02:26:04.964Z,55.27
2022-09-02T02:27:04.953Z,55.36
2022-09-02T02:28:05.556Z,55.36
2022-09-02T02:29:04.921Z,55.47
2022-09-02T02:30:04.950Z,55.47
2022-09-02T02:31:04.937Z,55.36
2022-09-02T02:32:04.901Z,55.57
2022-09-02T02:33:04.882Z,55.47
2022-09-02T02:34:04.872Z,55.47
2022-09-02T02:35:04.893Z,55.57
2022-09-02T02:36:04.854Z,55.57
2022-09-02T02:37:04.841Z,55.57
2022-09-02T02:38:04.893Z,55.67
2022-09-02T02:39:04.815Z,55.77
2022-09-02T02:40:04.836Z,55.57
2022-09-02T02:41:04.834Z,55.67
2022-09-02T02:42:04.782Z,55.57
2022-09-02T02:43:04.773Z,55.77
2022-09-02T02:44:04.762Z,55.67
2022-09-02T02:45:04.792Z,55.57
2022-09-02T02:46:04.756Z,55.67
2022-09-02T02:47:04.721Z,55.67
2022-09-02T02:48:04.722Z,55.67
2022-09-02T02:49:04.702Z,55.77
2022-09-02T02:50:04.712Z,55.67
2022-09-02T02:51:04.712Z,55.67
2022-09-02T02:52:04.736Z,55.67
2022-09-02T02:53:04.673Z,55.67
2022-09-02T02:54:04.661Z,55.67
2022-09-02T02:55:04.642Z,55.80
2022-09-02T02:56:04.632Z,55.67
2022-09-02T02:57:04.672Z,55.80
2022-09-02T02:58:04.613Z,55.90
2022-09-02T02:59:04.605Z,55.80
2022-09-02T03:00:04.602Z,55.90
2022-09-02T03:01:04.602Z,56.00
2022-09-02T03:02:04.666Z,56.00
2022-09-02T03:03:04.667Z,56.00
2022-09-02T03:04:04.551Z,56.20
2022-09-02T03:05:04.535Z,56.10
2022-09-02T03:06:04.529Z,56.20
2022-09-02T03:07:04.513Z,56.10
2022-09-02T03:08:04.504Z,56.10
2022-09-02T03:09:04.523Z,56.00
2022-09-02T03:10:04.481Z,56.00
2022-09-02T03:11:04.472Z,56.00
2022-09-02T03:12:04.473Z,56.10
2022-09-02T03:13:04.474Z,56.10
2022-09-02T03:14:04.442Z,56.10
2022-09-02T03:15:04.431Z,56.10
2022-09-02T03:16:04.498Z,56.20
2022-09-02T03:17:04.412Z,56.20
2022-09-02T03:18:04.433Z,56.10
2022-09-02T03:19:04.393Z,56.10
2022-09-02T03:20:04.380Z,56.00
2022-09-02T03:21:04.363Z,56.20
2022-09-02T03:22:04.352Z,56.30
2022-09-02T03:23:04.345Z,56.30
2022-09-02T03:24:04.368Z,56.51
2022-09-02T03:25:05.602Z,56.81
2022-09-02T03:26:04.312Z,56.61
2022-09-02T03:27:04.303Z,56.81
2022-09-02T03:28:04.292Z,57.11
2022-09-02T03:29:04.274Z,56.91
2022-09-02T03:30:04.293Z,56.51
2022-09-02T03:31:04.322Z,56.51
2022-09-02T03:32:04.250Z,56.40
2022-09-02T03:33:04.517Z,56.40
2022-09-02T03:34:04.266Z,56.40
2022-09-02T03:35:04.243Z,56.51
2022-09-02T03:36:04.209Z,56.43
2022-09-02T03:37:04.193Z,56.53
2022-09-02T03:38:04.186Z,56.53
2022-09-02T03:39:04.172Z,56.73
2022-09-02T03:40:04.312Z,56.73
2022-09-02T03:41:04.183Z,56.63
2022-09-02T03:42:05.703Z,56.63
2022-09-02T03:43:04.132Z,56.84
2022-09-02T03:44:04.123Z,56.73
2022-09-02T03:45:04.105Z,56.73
2022-09-02T03:46:04.188Z,56.73
2022-09-02T03:47:04.142Z,56.73
2022-09-02T03:48:04.073Z,56.94
2022-09-02T03:49:04.062Z,56.94
2022-09-02T03:50:04.060Z,56.94
2022-09-02T03:51:04.043Z,56.73
2022-09-02T03:52:04.033Z,56.94
2022-09-02T03:53:04.073Z,57.04
2022-09-02T03:54:04.013Z,56.73
2022-09-02T03:55:04.003Z,56.73
2022-09-02T03:56:03.992Z,57.24
2022-09-02T03:57:03.978Z,57.14
2022-09-02T03:58:08.415Z,57.04
2022-09-02T03:59:03.992Z,57.04
2022-09-02T04:00:03.950Z,57.04
2022-09-02T04:01:03.934Z,56.94
2022-09-02T04:02:04.120Z,57.04
2022-09-02T04:03:03.980Z,57.04
2022-09-02T04:04:03.933Z,56.94
2022-09-02T04:05:03.903Z,56.94
2022-09-02T04:06:03.893Z,57.14
2022-09-02T04:07:03.880Z,57.04
2022-09-02T04:08:03.883Z,57.24
2022-09-02T04:09:03.894Z,57.24
2022-09-02T04:10:03.853Z,57.14
2022-09-02T04:11:03.832Z,57.04
2022-09-02T04:12:03.832Z,57.24
2022-09-02T04:13:03.816Z,57.14
2022-09-02T04:14:03.793Z,57.04
2022-09-02T04:15:03.824Z,57.04
2022-09-02T04:16:03.844Z,57.14
2022-09-02T04:17:03.762Z,57.14
2022-09-02T04:18:03.763Z,57.44
2022-09-02T04:19:03.745Z,57.14
2022-09-02T04:20:03.742Z,57.24
2022-09-02T04:21:03.722Z,57.24
2022-09-02T04:22:03.744Z,57.24
2022-09-02T04:23:03.703Z,57.24
2022-09-02T04:24:03.733Z,57.14
2022-09-02T04:25:03.732Z,57.34
2022-09-02T04:26:03.674Z,57.14
2022-09-02T04:27:04.533Z,57.04
2022-09-02T04:28:03.653Z,57.14
2022-09-02T04:29:03.638Z,57.04
2022-09-02T04:30:03.632Z,57.04
2022-09-02T04:31:03.650Z,57.04
2022-09-02T04:32:03.632Z,57.04
2022-09-02T04:33:03.623Z,57.04
2022-09-02T04:34:03.585Z,57.04
2022-09-02T04:35:03.574Z,57.14
2022-09-02T04:36:03.614Z,57.14
2022-09-02T04:37:03.603Z,57.24
2022-09-02T04:38:03.547Z,57.24
2022-09-02T04:39:03.534Z,57.24
2022-09-02T04:40:03.525Z,57.14
2022-09-02T04:41:03.513Z,57.24
2022-09-02T04:42:03.503Z,57.34
2022-09-02T04:43:03.513Z,57.65
2022-09-02T04:44:03.481Z,57.65
2022-09-02T04:45:03.511Z,57.65
2022-09-02T04:46:03.551Z,57.34
2022-09-02T04:47:03.476Z,57.34
2022-09-02T04:48:03.442Z,57.34
2022-09-02T04:49:03.423Z,57.24
2022-09-02T04:50:03.462Z,57.34
2022-09-02T04:51:03.403Z,57.44
2022-09-02T04:52:03.424Z,57.34
2022-09-02T04:53:03.383Z,57.24
2022-09-02T04:54:03.406Z,57.24
2022-09-02T04:55:03.353Z,57.24
2022-09-02T04:56:03.353Z,57.24
2022-09-02T04:57:03.343Z,57.44
2022-09-02T04:58:03.345Z,57.95
2022-09-02T04:59:03.324Z,57.65
2022-09-02T05:00:03.393Z,57.65
2022-09-02T05:01:03.355Z,57.54
2022-09-02T05:02:03.388Z,57.44
2022-09-02T05:03:03.272Z,57.44
2022-09-02T05:04:03.272Z,57.44
2022-09-02T05:05:03.272Z,57.34
2022-09-02T05:06:03.243Z,57.34
2022-09-02T05:07:03.234Z,57.44
2022-09-02T05:08:03.222Z,57.44
2022-09-02T05:09:03.243Z,57.65
2022-09-02T05:10:03.195Z,57.34
2022-09-02T05:11:03.182Z,57.44
2022-09-02T05:12:03.178Z,57.34
2022-09-02T05:13:03.164Z,57.52
2022-09-02T05:14:03.183Z,57.21
2022-09-02T05:15:03.148Z,60.55
2022-09-02T05:16:03.186Z,58.83
2022-09-02T05:17:10.372Z,58.73
2022-09-02T05:18:03.802Z,58.33
2022-09-02T05:19:03.104Z,58.33
2022-09-02T05:20:03.095Z,58.60
2022-09-02T05:21:03.105Z,57.39
2022-09-02T05:22:03.065Z,57.39
2022-09-02T05:23:03.085Z,57.49
2022-09-02T05:24:03.045Z,57.79
2022-09-02T05:25:03.027Z,57.69
2022-09-02T05:26:03.026Z,56.35
2022-09-02T05:27:03.015Z,56.96
2022-09-02T05:28:03.016Z,56.56
2022-09-02T05:29:03.015Z,56.65
2022-09-02T05:30:03.033Z,56.96
2022-09-02T05:31:03.040Z,56.76
2022-09-02T05:32:02.966Z,56.65
2022-09-02T05:33:02.957Z,56.32
2022-09-02T05:34:02.975Z,56.02
2022-09-02T05:35:02.925Z,55.82
2022-09-02T05:36:02.944Z,55.72
2022-09-02T05:37:02.913Z,55.39
2022-09-02T05:38:02.905Z,55.59
2022-09-02T05:39:02.916Z,55.49
2022-09-02T05:40:02.893Z,55.59
2022-09-02T05:41:02.865Z,56.10
2022-09-02T05:42:02.865Z,55.59
2022-09-02T05:43:02.865Z,55.09
2022-09-02T05:44:03.697Z,55.26
2022-09-02T05:45:02.826Z,55.06
2022-09-02T05:46:02.848Z,55.06
2022-09-02T05:47:02.795Z,54.66
2022-09-02T05:48:02.796Z,54.66
2022-09-02T05:49:02.817Z,55.06
2022-09-02T05:50:03.120Z,55.06
2022-09-02T05:51:02.756Z,55.16
2022-09-02T05:52:02.745Z,55.16
2022-09-02T05:53:02.802Z,55.06
2022-09-02T05:54:02.726Z,55.06
2022-09-02T05:55:02.706Z,54.99
2022-09-02T05:56:02.705Z,55.99
2022-09-02T05:57:02.717Z,55.19
2022-09-02T05:58:02.676Z,55.19
2022-09-02T05:59:02.715Z,55.29
2022-09-02T06:00:02.657Z,55.49
2022-09-02T06:01:02.636Z,55.99
2022-09-02T06:02:02.705Z,56.90
2022-09-02T06:03:02.711Z,55.69
2022-09-02T06:04:02.633Z,55.69
2022-09-02T06:05:02.616Z,55.66
2022-09-02T06:06:06.602Z,55.36
2022-09-02T06:07:02.576Z,55.16
2022-09-02T06:08:02.586Z,55.26
2022-09-02T06:09:02.586Z,55.57
2022-09-02T06:10:02.548Z,55.26
2022-09-02T06:11:02.588Z,55.36
2022-09-02T06:12:02.584Z,55.46
2022-09-02T06:13:02.514Z,55.57
2022-09-02T06:14:02.517Z,55.26
2022-09-02T06:15:02.500Z,54.83
2022-09-02T06:16:02.533Z,54.63
2022-09-02T06:17:02.481Z,54.33
2022-09-02T06:18:02.505Z,54.43
2022-09-02T06:19:02.466Z,54.43
2022-09-02T06:20:02.447Z,54.63
2022-09-02T06:21:02.438Z,54.63
2022-09-02T06:22:02.466Z,55.04
2022-09-02T06:23:02.406Z,54.83
2022-09-02T06:24:02.408Z,54.73
2022-09-02T06:25:02.380Z,54.96
2022-09-02T06:26:02.376Z,54.96
2022-09-02T06:27:02.362Z,55.06
2022-09-02T06:28:06.921Z,55.26
2022-09-02T06:29:02.345Z,55.36
2022-09-02T06:30:02.343Z,55.36
2022-09-02T06:31:02.421Z,55.66
2022-09-02T06:32:02.336Z,55.57
2022-09-02T06:33:02.297Z,55.46
2022-09-02T06:34:02.299Z,55.46
2022-09-02T06:35:02.307Z,55.36
2022-09-02T06:36:02.283Z,55.66
2022-09-02T06:37:02.268Z,55.77
2022-09-02T06:38:02.278Z,55.46
2022-09-02T06:39:02.226Z,55.57
2022-09-02T06:40:02.236Z,55.90
2022-09-02T06:41:02.225Z,56.10
2022-09-02T06:42:02.226Z,56.20
2022-09-02T06:43:02.196Z,55.99
2022-09-02T06:44:02.184Z,56.17
2022-09-02T06:45:02.167Z,55.87
2022-09-02T06:46:02.183Z,56.07
2022-09-02T06:47:02.187Z,55.97
2022-09-02T06:48:02.167Z,56.07
2022-09-02T06:49:02.151Z,56.07
2022-09-02T06:50:02.116Z,56.07
2022-09-02T06:51:02.138Z,56.27
2022-09-02T06:52:02.135Z,56.27
2022-09-02T06:53:02.190Z,56.27
2022-09-02T06:54:02.086Z,56.27
2022-09-02T06:55:02.067Z,56.27
2022-09-02T06:56:02.086Z,56.37
2022-09-02T06:57:02.046Z,56.48
2022-09-02T06:58:02.075Z,56.37
2022-09-02T06:59:02.067Z,56.68
2022-09-02T07:00:02.692Z,56.48
2022-09-02T07:01:02.045Z,56.48
2022-09-02T07:02:02.134Z,56.27
2022-09-02T07:03:01.978Z,56.48
2022-09-02T07:04:01.958Z,56.48
2022-09-02T07:05:01.990Z,56.88
2022-09-02T07:06:01.984Z,56.68
2022-09-02T07:07:01.938Z,56.57
2022-09-02T07:08:01.918Z,56.57
2022-09-02T07:09:01.930Z,56.68
2022-09-02T07:10:01.918Z,57.28
2022-09-02T07:11:01.923Z,56.85
2022-09-02T07:12:04.621Z,56.65
2022-09-02T07:13:01.867Z,56.75
2022-09-02T07:14:01.857Z,56.55
2022-09-02T07:15:01.871Z,56.75
2022-09-02T07:16:01.949Z,56.75
2022-09-02T07:17:01.866Z,56.65
2022-09-02T07:18:01.819Z,56.65
2022-09-02T07:19:01.861Z,56.65
2022-09-02T07:20:01.817Z,56.55
2022-09-02T07:21:01.788Z,56.65
2022-09-02T07:22:01.771Z,56.65
2022-09-02T07:23:01.810Z,56.68
2022-09-02T07:24:01.836Z,56.75
2022-09-02T07:25:01.754Z,56.85
2022-09-02T07:26:01.738Z,56.65
2022-09-02T07:27:01.762Z,56.75
2022-09-02T07:28:01.731Z,56.75
2022-09-02T07:29:01.768Z,56.95
2022-09-02T07:30:01.678Z,57.05
2022-09-02T07:31:01.752Z,56.95
2022-09-02T07:32:01.677Z,56.95
2022-09-02T07:33:01.657Z,56.75
2022-09-02T07:34:01.698Z,56.85
2022-09-02T07:35:01.637Z,56.65
2022-09-02T07:36:01.639Z,56.62
2022-09-02T07:37:05.029Z,56.62
2022-09-02T07:38:02.616Z,56.62
2022-09-02T07:39:01.604Z,56.52
2022-09-02T07:40:01.607Z,56.22
2022-09-02T07:41:01.570Z,56.42
2022-09-02T07:42:01.579Z,56.42
2022-09-02T07:43:01.555Z,56.22
2022-09-02T07:44:01.549Z,56.32
2022-09-02T07:45:01.551Z,56.22
2022-09-02T07:46:03.286Z,56.12
2022-09-02T07:47:01.565Z,56.09
2022-09-02T07:48:01.499Z,56.09
2022-09-02T07:49:01.498Z,56.09
2022-09-02T07:50:19.768Z,56.09
2022-09-02T07:51:02.473Z,56.09
2022-09-02T07:52:01.459Z,56.09
2022-09-02T07:53:01.499Z,56.09
2022-09-02T07:54:01.428Z,55.99
2022-09-02T07:55:01.429Z,56.09
2022-09-02T07:56:01.408Z,56.20
2022-09-02T07:57:01.428Z,56.20
2022-09-02T07:58:01.398Z,55.99
2022-09-02T07:59:01.409Z,55.99
2022-09-02T08:00:01.369Z,56.20
2022-09-02T08:01:01.459Z,56.07
2022-09-02T08:02:01.413Z,55.87
2022-09-02T08:03:01.492Z,55.66
2022-09-02T08:04:04.133Z,55.66
2022-09-02T08:05:01.310Z,55.63
2022-09-02T08:06:01.309Z,55.33
2022-09-02T08:07:01.290Z,55.13
2022-09-02T08:08:01.277Z,55.00
2022-09-02T08:09:01.329Z,54.91
2022-09-02T08:10:01.272Z,54.60
2022-09-02T08:12:01.236Z,54.38
2022-09-02T08:13:01.229Z,54.08
2022-09-02T08:14:01.240Z,53.97
2022-09-02T08:15:01.233Z,53.75
2022-09-02T08:16:01.199Z,53.75
2022-09-02T08:17:01.315Z,53.65
2022-09-02T08:18:01.167Z,53.55
2022-09-02T08:19:01.160Z,53.65
2022-09-02T08:20:01.170Z,53.65
2022-09-02T08:21:01.147Z,53.62
2022-09-02T08:22:01.157Z,53.52
2022-09-02T08:23:11.473Z,53.42
2022-09-02T08:24:02.103Z,53.42
2022-09-02T08:25:01.115Z,53.52
2022-09-02T08:26:01.129Z,53.62
2022-09-02T08:27:01.175Z,53.72
2022-09-02T08:28:01.061Z,53.72
2022-09-02T08:29:01.070Z,53.72
2022-09-02T08:30:01.049Z,54.02
2022-09-02T08:31:01.058Z,53.92
2022-09-02T08:32:01.062Z,53.92
2022-09-02T08:33:01.009Z,53.92
2022-09-02T08:34:01.088Z,53.82
2022-09-02T08:35:00.992Z,53.92
2022-09-02T08:36:01.021Z,53.92
2022-09-02T08:37:00.971Z,53.72
2022-09-02T08:38:01.496Z,54.02
2022-09-02T08:39:00.953Z,53.82
2022-09-02T08:40:00.955Z,54.02
2022-09-02T08:41:00.933Z,54.22
2022-09-02T08:43:00.900Z,54.22
2022-09-02T08:44:00.890Z,54.22
2022-09-02T08:45:00.890Z,54.33
2022-09-02T08:46:00.927Z,54.22
2022-09-02T08:47:00.860Z,54.10
2022-09-02T08:48:00.880Z,53.90
2022-09-02T08:49:00.841Z,53.90
2022-09-02T08:50:00.830Z,53.70
2022-09-02T08:51:00.820Z,53.90
2022-09-02T08:52:01.170Z,53.80
2022-09-02T08:53:00.826Z,53.80
2022-09-02T08:54:00.839Z,53.57
2022-09-02T08:55:00.781Z,53.47
2022-09-02T08:56:00.760Z,53.77
2022-09-02T08:57:00.751Z,53.57
2022-09-02T08:58:00.801Z,53.47
2022-09-02T08:59:00.771Z,53.07
2022-09-02T09:00:00.723Z,53.17
2022-09-02T09:01:00.754Z,53.27
2022-09-02T09:02:01.009Z,53.37
2022-09-02T09:03:00.691Z,53.37
2022-09-02T09:04:00.700Z,53.45
2022-09-02T09:05:00.677Z,53.45
2022-09-02T09:06:00.674Z,53.55
2022-09-02T09:07:00.660Z,53.55
2022-09-02T09:08:00.631Z,53.25
2022-09-02T09:09:00.631Z,53.22
2022-09-02T09:10:00.641Z,53.12
2022-09-02T09:11:00.641Z,52.82
2022-09-02T09:12:00.592Z,52.92
2022-09-02T09:13:00.583Z,52.92
2022-09-02T09:14:00.569Z,52.82
2022-09-02T09:15:00.601Z,52.69
2022-09-02T09:16:00.665Z,52.59
2022-09-02T09:17:00.542Z,52.39
2022-09-02T09:18:00.528Z,52.49
2022-09-02T09:19:00.525Z,52.39
2022-09-02T09:20:00.513Z,52.29
2022-09-02T09:21:00.504Z,52.39
2022-09-02T09:22:00.542Z,52.39
2022-09-02T09:23:00.487Z,52.29
2022-09-02T09:24:00.462Z,52.19
2022-09-02T09:25:00.469Z,52.29
2022-09-02T09:26:00.443Z,52.49
2022-09-02T09:27:00.452Z,52.49
2022-09-02T09:28:00.414Z,52.39
2022-09-02T09:29:00.425Z,52.39
2022-09-02T09:30:00.402Z,52.59
2022-09-02T09:31:00.418Z,52.47
2022-09-02T09:32:00.431Z,52.57
2022-09-02T09:33:00.458Z,52.47
2022-09-02T09:34:00.352Z,52.17
2022-09-02T09:35:00.354Z,52.17
2022-09-02T09:36:00.340Z,52.17
2022-09-02T09:37:00.334Z,52.47
2022-09-02T09:38:00.352Z,52.17
2022-09-02T09:39:00.312Z,52.07
2022-09-02T09:40:00.301Z,51.87
2022-09-02T09:41:00.283Z,52.17
2022-09-02T09:42:00.466Z,52.17
2022-09-02T09:44:00.254Z,52.04
2022-09-02T09:45:00.324Z,52.04
2022-09-02T09:46:00.267Z,51.84
2022-09-02T09:47:00.225Z,51.74
2022-09-02T09:48:00.213Z,51.54
2022-09-02T09:49:00.405Z,51.25
2022-09-02T09:50:00.204Z,51.44
2022-09-02T09:51:00.174Z,51.44
2022-09-02T09:52:00.164Z,51.34
2022-09-02T09:53:00.155Z,51.54
2022-09-02T09:54:00.144Z,51.54
2022-09-02T09:55:00.225Z,51.54
2022-09-02T09:56:00.125Z,51.54
2022-09-02T09:57:00.115Z,51.44
2022-09-02T09:58:00.110Z,51.34
2022-09-02T09:59:00.103Z,51.14
2022-09-02T10:00:00.075Z,51.14
2022-09-02T10:01:00.210Z,51.25
2022-09-02T10:02:00.113Z,51.54
2022-09-02T10:03:00.053Z,52.12
2022-09-02T10:04:00.067Z,52.22
2022-09-02T10:05:00.039Z,52.02
2022-09-02T10:06:00.033Z,51.12
2022-09-02T10:07:00.035Z,50.89
2022-09-02T10:07:59.996Z,50.39
2022-09-02T10:08:59.996Z,50.70
2022-09-02T10:09:59.975Z,50.29
2022-09-02T10:10:59.966Z,50.09
2022-09-02T10:11:59.954Z,50.39
2022-09-02T10:12:59.966Z,50.67
2022-09-02T10:13:59.945Z,50.47
2022-09-02T10:14:59.955Z,50.27
2022-09-02T10:15:59.971Z,50.17
2022-09-02T10:16:59.905Z,49.87
2022-09-02T10:17:59.887Z,50.17
2022-09-02T10:18:59.876Z,50.07
2022-09-02T10:19:59.906Z,49.97
2022-09-02T10:21:16.051Z,50.17
2022-09-02T10:22:00.846Z,50.47
2022-09-02T10:23:00.699Z,50.27
2022-09-02T10:23:59.826Z,49.95
2022-09-02T10:24:59.868Z,49.65
2022-09-02T10:25:59.806Z,49.44
2022-09-02T10:26:59.806Z,49.74
2022-09-02T10:27:59.796Z,49.65
2022-09-02T10:29:03.423Z,49.85
2022-09-02T10:29:59.767Z,49.55
2022-09-02T10:30:59.776Z,49.35
2022-09-02T10:31:59.747Z,49.42
2022-09-02T10:32:59.737Z,49.22
2022-09-02T10:33:59.717Z,48.82
2022-09-02T10:34:59.758Z,48.93
2022-09-02T10:35:59.706Z,49.12
2022-09-02T10:36:59.697Z,48.82
2022-09-02T10:37:59.677Z,48.60
2022-09-02T10:38:59.677Z,48.50
2022-09-02T10:39:59.667Z,48.40
2022-09-02T10:40:59.806Z,48.50
2022-09-02T10:41:59.647Z,48.20
2022-09-02T10:42:59.633Z,48.50
2022-09-02T10:43:59.618Z,48.60
2022-09-02T10:44:59.617Z,48.68
2022-09-02T10:45:59.630Z,48.58
2022-09-02T10:46:59.638Z,48.28
2022-09-02T10:47:59.583Z,48.18
2022-09-02T10:48:59.568Z,48.48
2022-09-02T10:49:59.548Z,48.18
2022-09-02T10:50:59.578Z,48.35
2022-09-02T10:51:59.538Z,48.25
2022-09-02T10:52:59.548Z,48.35
2022-09-02T10:53:59.572Z,48.35
2022-09-02T10:54:59.497Z,48.16
2022-09-02T10:55:59.500Z,48.65
2022-09-02T10:56:59.497Z,48.63
2022-09-02T10:57:59.479Z,48.23
2022-09-02T10:59:59.449Z,47.53
2022-09-02T11:00:59.468Z,47.53
2022-09-02T11:01:59.418Z,49.53
2022-09-02T11:02:59.471Z,47.93
2022-09-02T11:03:59.489Z,48.63
2022-09-02T11:04:59.429Z,48.61
2022-09-02T11:05:59.419Z,48.33
2022-09-02T11:07:03.044Z,48.03
2022-09-02T11:07:59.358Z,48.33
2022-09-02T11:08:59.379Z,49.13
2022-09-02T11:09:59.338Z,47.83
2022-09-02T11:10:59.319Z,50.43
2022-09-02T11:12:00.291Z,48.33
2022-09-02T11:12:59.338Z,47.74
2022-09-02T11:13:59.289Z,47.74
2022-09-02T11:14:59.283Z,49.53
2022-09-02T11:15:59.338Z,47.96
2022-09-02T11:16:59.258Z,49.85
2022-09-02T11:17:59.260Z,48.55
2022-09-02T11:18:59.259Z,51.05
2022-09-02T11:19:59.230Z,47.66
2022-09-02T11:20:59.231Z,47.96
2022-09-02T11:21:59.211Z,48.65
2022-09-02T11:22:59.200Z,50.65
2022-09-02T11:23:59.190Z,47.86
2022-09-02T11:24:59.208Z,47.75
2022-09-02T11:25:59.171Z,48.75
2022-09-02T11:26:59.150Z,48.35
2022-09-02T11:27:59.151Z,48.16
2022-09-02T11:28:59.162Z,50.15
2022-09-02T11:29:59.130Z,47.45
2022-09-02T11:30:59.170Z,51.75
2022-09-02T11:31:59.102Z,49.05
2022-09-02T11:32:59.091Z,48.18
2022-09-02T11:33:59.143Z,46.06
2022-09-02T11:34:59.069Z,46.16
2022-09-02T11:35:59.061Z,47.06
2022-09-02T11:36:59.086Z,45.84
2022-09-02T11:37:59.043Z,45.44
2022-09-02T11:38:59.032Z,46.04
2022-09-02T11:40:11.646Z,45.54
2022-09-02T11:42:00.060Z,45.24
2022-09-02T11:42:58.981Z,45.42
2022-09-02T11:43:58.984Z,47.02
2022-09-02T11:44:58.963Z,47.21
2022-09-02T11:45:59.034Z,45.62
2022-09-02T11:46:59.021Z,45.62
2022-09-02T11:47:58.933Z,45.32
2022-09-02T11:48:58.925Z,45.02
2022-09-02T11:49:58.913Z,44.50
2022-09-02T11:50:58.931Z,44.60
2022-09-02T11:51:59.000Z,44.40
2022-09-02T11:52:58.884Z,45.90
2022-09-02T11:53:58.905Z,43.71
2022-09-02T11:55:02.502Z,43.21
2022-09-02T11:55:58.854Z,43.41
2022-09-02T11:56:58.844Z,42.61
2022-09-02T11:57:58.836Z,42.59
2022-09-02T11:58:58.843Z,41.69
2022-09-02T11:59:58.814Z,40.90
2022-09-02T12:00:58.805Z,40.60
2022-09-02T12:01:58.825Z,39.98
2022-09-02T12:02:58.783Z,39.18
2022-09-02T12:04:48.155Z,38.89
2022-09-02T12:05:01.604Z,38.69
2022-09-02T12:05:58.857Z,38.59
2022-09-02T12:06:58.888Z,38.59
2022-09-02T12:07:58.729Z,39.09
2022-09-02T12:08:58.713Z,40.48
2022-09-02T12:09:58.752Z,38.49
2022-09-02T12:10:58.685Z,38.59
2022-09-02T12:11:58.693Z,39.59
2022-09-02T12:12:58.675Z,38.69
2022-09-02T12:13:59.976Z,38.20
2022-09-02T12:14:58.687Z,37.30
2022-09-02T12:15:58.730Z,37.28
2022-09-02T12:16:58.633Z,37.08
2022-09-02T12:17:58.626Z,37.58
2022-09-02T12:18:58.607Z,37.77
2022-09-02T12:19:58.667Z,38.67
2022-09-02T12:20:58.615Z,38.37
2022-09-02T12:21:58.576Z,38.28
2022-09-02T12:22:58.564Z,37.38
2022-09-02T12:23:58.569Z,37.77
2022-09-02T12:24:58.561Z,37.68
2022-09-02T12:25:58.565Z,38.07
2022-09-02T12:26:58.515Z,38.28
2022-09-02T12:27:58.515Z,37.88
2022-09-02T12:28:58.504Z,37.38
2022-09-02T12:29:58.516Z,37.88
2022-09-02T12:30:58.527Z,37.77
2022-09-02T12:31:58.466Z,37.58
2022-09-02T12:32:58.456Z,37.98
2022-09-02T12:33:58.446Z,37.08
2022-09-02T12:34:58.438Z,37.48
2022-09-02T12:35:58.538Z,37.28
2022-09-02T12:36:58.457Z,37.77
2022-09-02T12:37:58.406Z,37.48
2022-09-02T12:38:58.387Z,37.77
2022-09-02T12:39:58.393Z,37.48
2022-09-02T12:40:58.436Z,37.28
2022-09-02T12:41:58.386Z,37.58
2022-09-02T12:42:58.378Z,37.28
2022-09-02T12:43:58.347Z,37.58
2022-09-02T12:44:58.328Z,37.77
2022-09-02T12:45:58.330Z,37.77
2022-09-02T12:46:58.349Z,38.18
2022-09-02T12:47:58.308Z,37.88
2022-09-02T12:48:58.358Z,38.28
2022-09-02T12:49:58.328Z,38.67
2022-09-02T12:50:58.270Z,38.67
2022-09-02T12:51:58.266Z,38.77
2022-09-02T12:52:58.270Z,38.77
2022-09-02T12:53:58.248Z,38.67
2022-09-02T12:54:58.229Z,38.77
2022-09-02T12:55:58.249Z,38.57
2022-09-02T12:56:58.209Z,37.99